Time;durP1;ratioP1;P1;durP2;ratioP2;P2;SDS_P1;SDS_P2;PMS_P1;PMS_P2;Temp;Humidity;BMP_temperature;BMP_pressure;BME280_temperature;BME280_humidity;BME280_pressure;Samples;Min_cycle;Max_cycle;Signal;HPM_P1;HPM_P2
2022/09/20 00:00:29;;;;;;;7.83;4.70;;;7.70;99.90;;;;;;5113958;28;20196;-70
2022/09/20 00:02:56;;;;;;;9.97;5.07;;;7.80;99.90;;;;;;5113674;28;20667;-70
2022/09/20 00:05:22;;;;;;;10.77;5.00;;;7.80;99.90;;;;;;5113777;28;20273;-70
2022/09/20 00:07:49;;;;;;;10.27;4.80;;;7.90;99.90;;;;;;5113653;28;20192;-70
2022/09/20 00:10:16;;;;;;;9.37;4.90;;;7.80;99.90;;;;;;5113644;28;20294;-70
2022/09/20 00:12:43;;;;;;;6.60;4.77;;;7.90;99.90;;;;;;5113311;28;20755;-71
2022/09/20 00:15:09;;;;;;;8.43;4.83;;;7.80;99.90;;;;;;5113644;28;20196;-71
2022/09/20 00:17:37;;;;;;;9.40;4.90;;;7.80;99.90;;;;;;5113631;28;20203;-70
2022/09/20 00:20:05;;;;;;;10.33;5.07;;;7.80;99.90;;;;;;5113575;28;20199;-70
2022/09/20 00:22:31;;;;;;;7.53;5.40;;;7.70;99.90;;;;;;5113263;28;20227;-70
2022/09/20 00:24:58;;;;;;;7.37;4.70;;;7.70;99.90;;;;;;5113327;28;20196;-71
2022/09/20 00:27:24;;;;;;;8.80;5.07;;;7.70;99.90;;;;;;5113348;28;20195;-71
2022/09/20 00:29:52;;;;;;;13.20;5.47;;;7.60;99.90;;;;;;5113581;28;20191;-70
2022/09/20 00:32:19;;;;;;;7.00;4.83;;;7.70;99.90;;;;;;5113393;28;20228;-70
2022/09/20 00:37:31;;;;;;;12.20;5.17;;;7.60;99.90;;;;;;5113276;28;20211;-70
2022/09/20 00:39:58;;;;;;;7.60;4.93;;;7.60;99.90;;;;;;5113461;28;20226;-71
2022/09/20 00:42:27;;;;;;;9.40;5.20;;;7.60;99.90;;;;;;5113547;28;20196;-72
2022/09/20 00:44:57;;;;;;;8.57;4.70;;;7.40;99.90;;;;;;5113394;28;20196;-71
2022/09/20 00:47:38;;;;;;;7.87;5.13;;;7.40;99.90;;;;;;5113270;28;20192;-70
2022/09/20 00:50:32;;;;;;;11.50;5.27;;;7.40;99.90;;;;;;5113250;28;20195;-71
2022/09/20 00:53:04;;;;;;;11.73;6.10;;;7.40;99.90;;;;;;5113593;28;20234;-70
2022/09/20 00:55:31;;;;;;;9.47;5.60;;;7.40;99.90;;;;;;5113542;28;20646;-69
2022/09/20 00:57:59;;;;;;;11.07;5.70;;;7.40;99.90;;;;;;5113357;28;20192;-70
2022/09/20 01:00:27;;;;;;;8.37;5.43;;;7.30;99.90;;;;;;5113035;28;20264;-70
2022/09/20 01:02:57;;;;;;;11.67;5.33;;;7.30;99.90;;;;;;5113192;28;20199;-70
2022/09/20 01:05:25;;;;;;;12.07;5.90;;;7.20;99.90;;;;;;5113240;28;20192;-71
2022/09/20 01:07:53;;;;;;;10.80;5.93;;;7.20;99.90;;;;;;5113020;28;20659;-71
2022/09/20 01:10:19;;;;;;;12.23;5.97;;;7.20;99.90;;;;;;5113128;28;20203;-70
2022/09/20 01:12:47;;;;;;;10.13;6.13;;;7.30;99.90;;;;;;5112937;28;20279;-71
2022/09/20 01:15:15;;;;;;;9.80;5.97;;;7.40;99.90;;;;;;5112855;28;20204;-71
2022/09/20 01:17:46;;;;;;;12.13;5.97;;;7.40;99.90;;;;;;5112991;28;20283;-71
2022/09/20 01:20:18;;;;;;;10.17;6.00;;;7.50;99.90;;;;;;5113043;28;20195;-71
2022/09/20 01:23:00;;;;;;;11.63;6.67;;;7.50;99.90;;;;;;5112698;28;20223;-71
2022/09/20 01:25:55;;;;;;;13.23;6.47;;;7.60;99.90;;;;;;5112804;28;20331;-71
2022/09/20 01:28:24;;;;;;;13.77;6.13;;;7.60;99.90;;;;;;5102396;28;20249;-71
2022/09/20 01:31:00;;;;;;;12.10;6.47;;;7.60;99.90;;;;;;5112945;28;20199;-71
2022/09/20 01:33:32;;;;;;;10.73;6.27;;;7.70;99.90;;;;;;5112987;28;20222;-71
2022/09/20 01:36:02;;;;;;;7.70;6.43;;;7.70;99.90;;;;;;5112843;28;20204;-71
2022/09/20 01:38:35;;;;;;;14.73;7.10;;;7.80;99.90;;;;;;5112826;28;20204;-71
2022/09/20 01:41:09;;;;;;;12.50;6.47;;;7.90;99.90;;;;;;5112833;28;20196;-71
2022/09/20 01:43:44;;;;;;;10.93;6.40;;;7.90;99.90;;;;;;5112816;28;20198;-70
2022/09/20 01:46:24;;;;;;;8.10;6.53;;;7.90;99.90;;;;;;5113763;28;20201;-71
2022/09/20 01:48:55;;;;;;;8.83;6.10;;;7.80;99.90;;;;;;5116171;28;20551;-71
2022/09/20 01:51:56;;;;;;;12.20;6.20;;;7.80;99.90;;;;;;5116256;28;20288;-70
2022/09/20 01:54:56;;;;;;;9.10;6.73;;;7.80;99.90;;;;;;5116088;28;20211;-70
2022/09/20 01:58:09;;;;;;;9.97;6.23;;;7.80;99.90;;;;;;5111728;28;20241;-71
2022/09/20 02:00:57;;;;;;;10.73;6.80;;;7.80;99.90;;;;;;5115943;28;20650;-71
2022/09/20 02:04:03;;;;;;;8.77;6.07;;;7.80;99.90;;;;;;5116216;28;20203;-71
2022/09/20 02:06:45;;;;;;;11.63;6.20;;;7.80;99.90;;;;;;5115918;28;20656;-72
2022/09/20 02:09:47;;;;;;;11.53;5.93;;;7.80;99.90;;;;;;5115879;28;20199;-70
2022/09/20 02:12:37;;;;;;;9.67;5.67;;;7.80;99.90;;;;;;5115920;27;20624;-70
2022/09/20 02:15:14;;;;;;;9.77;5.60;;;7.90;99.90;;;;;;5115815;28;20248;-72
2022/09/20 02:17:52;;;;;;;11.03;5.77;;;7.90;99.90;;;;;;5115677;28;20650;-71
2022/09/20 02:20:39;;;;;;;12.93;6.10;;;7.90;99.90;;;;;;5115714;28;20660;-71
2022/09/20 02:23:21;;;;;;;10.03;5.37;;;7.90;99.90;;;;;;5116070;28;20195;-71
2022/09/20 02:26:05;;;;;;;12.07;6.13;;;7.90;99.90;;;;;;5115531;28;20201;-72
2022/09/20 02:28:45;;;;;;;11.63;6.00;;;7.90;99.90;;;;;;5115436;28;20201;-71
2022/09/20 02:31:21;;;;;;;11.33;6.77;;;7.90;99.90;;;;;;5115303;28;20200;-71
2022/09/20 02:34:03;;;;;;;10.27;5.90;;;8.00;99.90;;;;;;5115490;28;20223;-71
2022/09/20 02:36:41;;;;;;;13.30;6.10;;;7.90;99.90;;;;;;5115327;28;20236;-72
2022/09/20 02:39:11;;;;;;;10.53;6.47;;;7.90;99.90;;;;;;5115441;28;20203;-72
2022/09/20 02:41:58;;;;;;;10.27;5.67;;;7.90;99.90;;;;;;5115508;28;20248;-72
2022/09/20 02:44:36;;;;;;;9.43;6.40;;;7.90;99.90;;;;;;5115199;28;20594;-72
2022/09/20 02:47:12;;;;;;;9.73;5.57;;;7.90;99.90;;;;;;5115457;28;20195;-72
2022/09/20 02:49:58;;;;;;;12.50;6.00;;;7.90;99.90;;;;;;5115255;28;20195;-72
2022/09/20 02:52:30;;;;;;;12.33;6.07;;;7.90;99.90;;;;;;5114948;28;20732;-72
2022/09/20 02:55:03;;;;;;;9.53;5.40;;;8.00;99.90;;;;;;5115021;28;20204;-72
2022/09/20 02:57:37;;;;;;;9.80;5.43;;;8.00;99.90;;;;;;5115056;28;20200;-71
2022/09/20 03:00:06;;;;;;;8.00;5.43;;;8.00;99.90;;;;;;5115077;28;20196;-72
2022/09/20 03:02:50;;;;;;;10.50;6.20;;;7.90;99.90;;;;;;5114650;28;20654;-72
2022/09/20 03:05:23;;;;;;;11.20;6.13;;;7.90;99.90;;;;;;5114803;28;20230;-72
2022/09/20 03:08:04;;;;;;;7.47;6.00;;;7.90;99.90;;;;;;5114620;28;20197;-72
2022/09/20 03:10:37;;;;;;;11.83;6.10;;;7.90;99.90;;;;;;5114880;28;20351;-73
2022/09/20 03:13:17;;;;;;;8.17;5.70;;;7.80;99.90;;;;;;5114605;28;20277;-72
2022/09/20 03:15:57;;;;;;;11.63;6.00;;;7.80;99.90;;;;;;5114585;28;20318;-72
2022/09/20 03:18:33;;;;;;;10.70;6.60;;;7.70;99.90;;;;;;5114677;28;20267;-72
2022/09/20 03:21:15;;;;;;;10.77;5.97;;;7.60;99.90;;;;;;5114343;28;20288;-72
2022/09/20 03:23:54;;;;;;;12.43;6.80;;;7.60;99.90;;;;;;5114451;28;20291;-72
2022/09/20 03:26:34;;;;;;;9.37;6.60;;;7.50;99.90;;;;;;5114268;28;20196;-72
2022/09/20 03:29:04;;;;;;;10.67;6.33;;;7.50;99.90;;;;;;5114463;28;20203;-72
2022/09/20 03:31:49;;;;;;;13.43;6.63;;;7.40;99.90;;;;;;5114033;28;20535;-72
2022/09/20 03:34:28;;;;;;;11.53;6.80;;;7.30;99.90;;;;;;5114112;27;20723;-72
2022/09/20 03:37:20;;;;;;;12.83;7.47;;;7.30;99.90;;;;;;5113977;28;20655;-72
2022/09/20 03:40:06;;;;;;;9.20;6.93;;;7.30;99.90;;;;;;5113944;28;20254;-72
2022/09/20 03:42:32;;;;;;;14.00;7.17;;;7.10;99.90;;;;;;5114047;28;20199;-72
2022/09/20 03:45:22;;;;;;;9.87;7.57;;;7.20;99.90;;;;;;5113998;27;20203;-72
2022/09/20 03:48:13;;;;;;;10.83;7.57;;;7.30;99.90;;;;;;5113972;28;20733;-72
2022/09/20 03:50:51;;;;;;;13.77;7.37;;;7.30;99.90;;;;;;5113913;28;20291;-72
2022/09/20 03:53:45;;;;;;;18.43;7.43;;;7.30;99.90;;;;;;5113853;28;20628;-72
2022/09/20 03:56:32;;;;;;;18.17;7.70;;;7.30;99.90;;;;;;5113902;28;20196;-72
2022/09/20 03:59:15;;;;;;;13.07;8.00;;;7.30;99.90;;;;;;5113704;28;20740;-71
2022/09/20 04:02:03;;;;;;;11.57;8.23;;;7.40;99.90;;;;;;5113631;28;20670;-71
2022/09/20 04:04:36;;;;;;;19.30;8.73;;;7.30;99.90;;;;;;5113821;28;20208;-72
2022/09/20 04:07:15;;;;;;;15.00;7.53;;;7.30;99.90;;;;;;5113757;28;20196;-72
2022/09/20 04:10:03;;;;;;;15.30;8.13;;;7.20;99.90;;;;;;5113338;28;20280;-71
2022/09/20 04:12:39;;;;;;;15.13;8.53;;;7.10;99.90;;;;;;5113760;28;20231;-72
2022/09/20 04:15:22;;;;;;;16.53;8.57;;;7.10;99.90;;;;;;5113608;28;20582;-73
2022/09/20 04:17:56;;;;;;;10.27;8.07;;;7.20;99.90;;;;;;5113554;28;20201;-72
2022/09/20 04:20:31;;;;;;;14.80;8.17;;;7.20;99.90;;;;;;5113424;28;20199;-72
2022/09/20 04:23:02;;;;;;;21.17;9.07;;;7.20;99.90;;;;;;5113213;28;20227;-72
2022/09/20 04:25:38;;;;;;;16.50;9.00;;;7.20;99.90;;;;;;5113632;28;20268;-73
2022/09/20 04:28:11;;;;;;;17.93;9.40;;;7.20;99.90;;;;;;5113480;28;20232;-72
2022/09/20 04:30:42;;;;;;;12.93;9.27;;;7.20;99.90;;;;;;5113396;28;20199;-72
2022/09/20 04:33:17;;;;;;;14.83;8.47;;;7.20;99.90;;;;;;5113181;28;20219;-72
2022/09/20 04:38:36;;;;;;;15.20;9.10;;;7.20;99.90;;;;;;5113290;28;20198;-73
2022/09/20 04:41:20;;;;;;;15.80;9.17;;;7.20;99.90;;;;;;5113244;28;20195;-72
2022/09/20 04:44:27;;;;;;;18.03;9.53;;;7.20;99.90;;;;;;5113423;28;20208;-72
2022/09/20 04:47:28;;;;;;;17.37;9.77;;;7.10;99.90;;;;;;5113274;28;20199;-71
2022/09/20 04:50:22;;;;;;;21.00;10.33;;;7.10;99.90;;;;;;5113101;28;20194;-71
2022/09/20 04:53:45;;;;;;;19.63;9.50;;;7.10;99.90;;;;;;5113188;28;20296;-71
2022/09/20 04:56:20;;;;;;;18.03;10.40;;;7.20;99.90;;;;;;5113342;28;20184;-73
2022/09/20 04:58:49;;;;;;;16.90;9.80;;;7.20;99.90;;;;;;5113291;28;20228;-72
2022/09/20 05:01:58;;;;;;;21.30;10.53;;;7.20;99.90;;;;;;5112875;28;20191;-71
2022/09/20 05:05:05;;;;;;;20.50;10.93;;;7.10;99.90;;;;;;5097521;28;20204;-73
2022/09/20 05:08:01;;;;;;;19.03;11.37;;;7.00;99.90;;;;;;5113038;28;20192;-73
2022/09/20 05:10:53;;;;;;;19.37;11.37;;;7.00;99.90;;;;;;5085687;28;20196;-71
2022/09/20 05:13:36;;;;;;;19.80;11.57;;;7.00;99.90;;;;;;5112796;28;20227;-73
2022/09/20 05:16:06;;;;;;;18.73;11.30;;;7.00;99.90;;;;;;5113184;28;20662;-73
2022/09/20 05:19:04;;;;;;;23.57;12.87;;;7.00;99.90;;;;;;5112825;28;20200;-73
2022/09/20 05:22:16;;;;;;;24.33;13.67;;;7.00;99.90;;;;;;5114458;28;20227;-73
2022/09/20 05:25:14;;;;;;;24.90;12.97;;;7.10;99.90;;;;;;5098032;27;20252;-72
2022/09/20 05:27:46;;;;;;;28.30;13.53;;;7.30;99.90;;;;;;5116717;28;20199;-72
2022/09/20 05:30:23;;;;;;;22.67;13.37;;;7.20;99.90;;;;;;5116551;28;20203;-73
2022/09/20 05:33:00;;;;;;;27.30;14.03;;;7.10;99.90;;;;;;5116586;28;20219;-73
2022/09/20 05:35:33;;;;;;;22.60;13.27;;;7.10;99.90;;;;;;5116352;28;20256;-73
2022/09/20 05:38:09;;;;;;;27.40;14.80;;;7.10;99.90;;;;;;5116571;28;20203;-72
2022/09/20 05:40:54;;;;;;;24.60;14.80;;;7.10;99.90;;;;;;5116468;28;20203;-73
2022/09/20 05:43:27;;;;;;;23.33;14.60;;;7.10;99.90;;;;;;5116330;28;20250;-72
2022/09/20 05:46:10;;;;;;;25.00;15.03;;;7.10;99.90;;;;;;5116133;28;20198;-72
2022/09/20 05:48:44;;;;;;;29.80;13.93;;;7.10;99.90;;;;;;5116185;28;20199;-73
2022/09/20 05:51:24;;;;;;;23.23;14.73;;;7.30;99.90;;;;;;5116168;28;20248;-73
2022/09/20 05:54:06;;;;;;;27.93;16.07;;;7.30;99.90;;;;;;5116181;28;20227;-72
2022/09/20 05:56:45;;;;;;;22.17;15.50;;;7.20;99.90;;;;;;5116361;27;20241;-75
2022/09/20 05:59:29;;;;;;;30.47;15.20;;;7.30;99.90;;;;;;5116282;28;20261;-73
2022/09/20 06:02:10;;;;;;;27.43;15.67;;;7.40;99.90;;;;;;5116125;28;20195;-73
2022/09/20 06:04:45;;;;;;;24.97;14.83;;;7.50;99.90;;;;;;5115902;28;20203;-73
2022/09/20 06:07:22;;;;;;;23.17;14.80;;;7.60;99.90;;;;;;5116148;28;20199;-73
2022/09/20 06:10:24;;;;;;;25.03;15.07;;;7.70;99.90;;;;;;5115997;28;20202;-73
2022/09/20 06:12:57;;;;;;;31.20;14.20;;;7.80;99.90;;;;;;5115711;28;20227;-73
2022/09/20 06:15:35;;;;;;;25.50;14.67;;;7.90;99.90;;;;;;5115728;28;20647;-73
2022/09/20 06:18:20;;;;;;;22.43;13.53;;;8.00;99.90;;;;;;5115986;28;20267;-73
2022/09/20 06:20:57;;;;;;;22.27;13.53;;;8.00;99.90;;;;;;5115553;28;20715;-73
2022/09/20 06:23:25;;;;;;;24.90;13.80;;;8.00;99.90;;;;;;5115494;28;20192;-73
2022/09/20 06:25:56;;;;;;;19.83;13.93;;;8.10;99.90;;;;;;5115762;28;20200;-73
2022/09/20 06:28:26;;;;;;;23.03;15.60;;;8.10;99.90;;;;;;5115681;28;20209;-73
2022/09/20 06:30:54;;;;;;;20.40;13.10;;;8.10;99.90;;;;;;5115427;28;20195;-73
2022/09/20 06:33:24;;;;;;;21.43;12.70;;;8.10;99.90;;;;;;5114875;28;20323;-74
2022/09/20 06:35:54;;;;;;;20.30;13.00;;;8.10;99.90;;;;;;5115249;28;20569;-73
2022/09/20 06:41:27;;;;;;;23.27;12.90;;;8.40;99.90;;;;;;5115235;28;20309;-74
2022/09/20 06:43:55;;;;;;;19.77;11.77;;;8.50;99.90;;;;;;5115008;28;20600;-73
2022/09/20 06:46:21;;;;;;;16.90;11.70;;;8.60;99.90;;;;;;5114955;28;20241;-73
2022/09/20 06:48:50;;;;;;;13.87;11.10;;;8.60;99.90;;;;;;5114912;28;20207;-73
2022/09/20 06:51:16;;;;;;;16.70;10.43;;;8.50;99.90;;;;;;5114785;28;20287;-73
2022/09/20 06:53:43;;;;;;;15.83;10.00;;;8.60;99.90;;;;;;5114926;28;20228;-73
2022/09/20 06:56:14;;;;;;;18.33;10.87;;;8.70;99.90;;;;;;5114903;28;20196;-73
2022/09/20 06:58:41;;;;;;;17.27;9.60;;;8.70;99.90;;;;;;5114822;28;20214;-73
2022/09/20 07:01:08;;;;;;;12.80;9.30;;;8.70;99.90;;;;;;5114597;28;20196;-73
2022/09/20 07:03:34;;;;;;;16.30;9.40;;;8.80;99.90;;;;;;5114587;28;20663;-74
2022/09/20 07:06:03;;;;;;;15.20;8.70;;;8.90;99.90;;;;;;5114744;28;20252;-74
2022/09/20 07:08:30;;;;;;;15.57;7.33;;;8.90;99.90;;;;;;5115378;28;20251;-74
2022/09/20 07:10:56;;;;;;;15.27;7.87;;;9.10;99.90;;;;;;5114804;28;20812;-74
2022/09/20 07:13:24;;;;;;;17.03;7.50;;;9.40;99.90;;;;;;5114364;28;20212;-73
2022/09/20 07:15:50;;;;;;;12.60;6.90;;;9.40;99.90;;;;;;5114750;28;20252;-74
2022/09/20 07:18:17;;;;;;;11.67;6.70;;;9.50;99.90;;;;;;5114253;28;20631;-74
2022/09/20 07:20:44;;;;;;;15.17;6.20;;;9.70;99.90;;;;;;5114343;28;20200;-74
2022/09/20 07:23:12;;;;;;;11.00;5.77;;;9.90;99.90;;;;;;5114452;28;20287;-74
2022/09/20 07:25:38;;;;;;;13.40;6.20;;;10.00;99.90;;;;;;5114214;28;20221;-74
2022/09/20 07:28:05;;;;;;;10.40;6.00;;;9.90;99.90;;;;;;5114183;28;20195;-74
2022/09/20 07:30:31;;;;;;;10.07;5.50;;;10.10;99.90;;;;;;5114363;28;20248;-74
2022/09/20 07:32:59;;;;;;;12.20;5.00;;;10.10;99.90;;;;;;5114212;28;20253;-74
2022/09/20 07:35:26;;;;;;;9.67;4.70;;;10.20;99.90;;;;;;5114347;28;20248;-74
2022/09/20 07:37:56;;;;;;;9.77;3.97;;;10.50;99.90;;;;;;5114218;28;20256;-74
2022/09/20 07:40:26;;;;;;;12.17;4.10;;;10.50;99.90;;;;;;5114023;28;20686;-74
2022/09/20 07:42:52;;;;;;;9.07;3.83;;;10.60;99.90;;;;;;5113605;28;20221;-74
2022/09/20 07:45:19;;;;;;;11.10;3.70;;;10.70;99.90;;;;;;5113575;28;20196;-74
2022/09/20 07:47:45;;;;;;;9.67;3.93;;;10.60;99.90;;;;;;5114104;28;20195;-74
2022/09/20 07:50:12;;;;;;;12.17;3.60;;;10.50;99.90;;;;;;5114045;28;20249;-74
2022/09/20 07:52:39;;;;;;;12.10;3.80;;;10.60;99.90;;;;;;5113865;28;20723;-74
2022/09/20 07:55:06;;;;;;;12.20;3.40;;;10.60;99.90;;;;;;5113608;28;20620;-74
2022/09/20 07:57:37;;;;;;;5.67;3.30;;;10.60;99.90;;;;;;5113578;28;20678;-75
2022/09/20 08:00:06;;;;;;;8.63;3.50;;;10.60;99.90;;;;;;5113929;28;20196;-75
2022/09/20 08:02:33;;;;;;;9.43;3.70;;;10.50;99.90;;;;;;5113714;28;20703;-75
2022/09/20 08:05:00;;;;;;;9.50;3.90;;;10.60;99.90;;;;;;5113739;28;20196;-75
2022/09/20 08:07:27;;;;;;;13.73;4.13;;;10.70;99.90;;;;;;5113651;28;20196;-75
2022/09/20 08:09:53;;;;;;;9.00;4.00;;;10.50;99.90;;;;;;5113594;28;20291;-75
2022/09/20 08:12:20;;;;;;;11.77;3.87;;;10.70;99.90;;;;;;5113746;28;20248;-75
2022/09/20 08:14:49;;;;;;;7.27;3.43;;;10.90;99.90;;;;;;5113478;28;20223;-75
2022/09/20 08:17:15;;;;;;;11.80;4.00;;;11.10;99.90;;;;;;5113418;28;20719;-75
2022/09/20 08:19:42;;;;;;;10.80;4.17;;;11.30;99.90;;;;;;5113266;28;20336;-74
2022/09/20 08:22:09;;;;;;;12.67;4.27;;;11.30;99.90;;;;;;5112997;28;20223;-73
2022/09/20 08:24:36;;;;;;;7.43;3.10;;;11.70;99.90;;;;;;5113562;28;20218;-75
2022/09/20 08:27:03;;;;;;;9.10;3.00;;;12.00;99.90;;;;;;5113351;28;20540;-74
2022/09/20 08:29:30;;;;;;;10.53;3.00;;;12.10;99.90;;;;;;5113441;28;20195;-75
2022/09/20 08:32:00;;;;;;;9.47;3.33;;;12.10;99.90;;;;;;5113261;28;20276;-74
2022/09/20 08:34:26;;;;;;;8.20;2.63;;;12.40;99.90;;;;;;5113106;28;20683;-74
2022/09/20 08:36:55;;;;;;;9.57;3.20;;;12.70;99.90;;;;;;5113099;28;20191;-75
2022/09/20 08:39:22;;;;;;;6.47;3.53;;;12.20;99.90;;;;;;5113523;28;20199;-75
2022/09/20 08:41:55;;;;;;;10.13;3.87;;;12.00;99.90;;;;;;5113416;28;20192;-75
2022/09/20 08:44:26;;;;;;;11.00;3.10;;;12.20;99.90;;;;;;5113188;28;20677;-75
2022/09/20 08:47:04;;;;;;;9.27;3.50;;;12.30;99.90;;;;;;5113228;28;20199;-75
2022/09/20 08:49:31;;;;;;;8.80;3.03;;;12.30;99.90;;;;;;5113277;28;20228;-75
2022/09/20 08:52:01;;;;;;;11.63;3.03;;;12.00;99.90;;;;;;5113291;28;20192;-75
2022/09/20 08:54:32;;;;;;;9.67;2.63;;;12.00;99.90;;;;;;5113054;28;20312;-74
2022/09/20 08:57:03;;;;;;;9.30;2.70;;;11.60;99.90;;;;;;5117367;28;20246;-74
2022/09/20 08:59:31;;;;;;;10.87;2.73;;;11.40;99.90;;;;;;5117280;28;20195;-75
2022/09/20 09:01:58;;;;;;;10.43;2.80;;;11.50;99.90;;;;;;5117249;28;20249;-76
2022/09/20 09:04:34;;;;;;;8.13;2.70;;;11.50;99.90;;;;;;5117175;28;20516;-75
2022/09/20 09:07:01;;;;;;;7.00;2.80;;;11.70;99.90;;;;;;5116909;28;20199;-76
2022/09/20 09:09:30;;;;;;;8.43;2.73;;;11.80;99.90;;;;;;5116629;28;20286;-74
2022/09/20 09:11:58;;;;;;;10.63;2.83;;;12.10;99.90;;;;;;5116889;28;20199;-75
2022/09/20 09:17:14;;;;;;;12.80;2.80;;;12.70;99.90;;;;;;5116848;28;20554;-75
2022/09/20 09:19:47;;;;;;;6.07;2.50;;;12.60;99.90;;;;;;5116678;28;20196;-75
2022/09/20 09:22:20;;;;;;;9.17;2.33;;;12.90;99.90;;;;;;5116422;28;20227;-76
2022/09/20 09:25:07;;;;;;;5.67;2.30;;;12.90;99.90;;;;;;5116597;28;20229;-76
2022/09/20 09:27:35;;;;;;;7.93;2.60;;;13.10;99.90;;;;;;5116594;28;20724;-76
2022/09/20 09:30:02;;;;;;;9.90;2.80;;;12.90;99.90;;;;;;5116503;28;20873;-76
2022/09/20 09:32:31;;;;;;;7.00;2.90;;;12.90;99.90;;;;;;5116549;28;20253;-76
2022/09/20 09:35:23;;;;;;;5.00;2.17;;;13.00;99.90;;;;;;5116296;28;20230;-76
2022/09/20 09:37:54;;;;;;;5.77;2.37;;;13.20;99.90;;;;;;5116681;28;20245;-76
2022/09/20 09:40:21;;;;;;;4.50;2.30;;;13.40;99.90;;;;;;5116513;28;20226;-76
2022/09/20 09:42:50;;;;;;;5.37;2.40;;;14.20;99.90;;;;;;5116348;28;20199;-75
2022/09/20 09:45:27;;;;;;;8.07;2.40;;;14.50;99.90;;;;;;5116122;28;20638;-76
2022/09/20 09:47:53;;;;;;;10.03;2.27;;;14.60;99.90;;;;;;5116562;28;20268;-76
2022/09/20 09:50:26;;;;;;;5.67;2.10;;;14.10;99.90;;;;;;5116374;28;20265;-76
2022/09/20 09:53:02;;;;;;;6.83;2.03;;;13.40;99.90;;;;;;5116115;28;20655;-76
2022/09/20 09:55:43;;;;;;;9.27;2.63;;;12.90;99.90;;;;;;5115970;28;20309;-76
2022/09/20 09:58:21;;;;;;;4.70;2.43;;;12.50;99.90;;;;;;5116027;28;20191;-76
2022/09/20 10:00:48;;;;;;;5.70;2.70;;;12.50;99.90;;;;;;5116141;28;20200;-76
2022/09/20 10:03:47;;;;;;;3.90;1.90;;;12.50;99.90;;;;;;5115904;28;20192;-76
2022/09/20 10:06:23;;;;;;;6.00;2.33;;;12.60;99.90;;;;;;5115282;28;20269;-77
2022/09/20 10:09:15;;;;;;;10.33;2.20;;;13.20;99.90;;;;;;5115921;28;20203;-76
2022/09/20 10:11:57;;;;;;;5.13;1.90;;;14.70;99.90;;;;;;5113629;28;20195;-76
2022/09/20 10:14:37;;;;;;;3.50;1.50;;;15.50;99.90;;;;;;5115533;28;20270;-76
2022/09/20 10:17:25;;;;;;;6.10;1.65;;;15.70;99.90;;;;;;5115598;28;20203;-76
2022/09/20 10:20:20;;;;;;;4.80;1.55;;;15.50;99.90;;;;;;5115764;28;20257;-76
2022/09/20 10:22:55;;;;;;;3.53;2.03;;;15.40;99.90;;;;;;5115367;28;20228;-76
2022/09/20 10:25:38;;;;;;;10.13;2.30;;;16.30;99.90;;;;;;5115746;28;20256;-76
2022/09/20 10:28:17;;;;;;;5.63;2.08;;;16.30;99.90;;;;;;5115466;28;20196;-76
2022/09/20 10:31:00;;;;;;;4.57;1.90;;;17.60;99.90;;;;;;5115376;28;20368;-76
2022/09/20 10:33:37;;;;;;;5.38;1.80;;;16.20;99.90;;;;;;5115201;28;20195;-76
2022/09/20 10:36:19;;;;;;;3.28;1.45;;;15.90;99.90;;;;;;5115281;28;20310;-76
2022/09/20 10:38:57;;;;;;;2.53;1.52;;;14.90;99.90;;;;;;5115112;28;20719;-76
2022/09/20 10:44:40;;;;;;;5.03;1.87;;;14.10;99.90;;;;;;5115192;28;20236;-75
2022/09/20 10:47:13;;;;;;;4.20;1.60;;;13.50;99.90;;;;;;5115067;28;20210;-75
2022/09/20 10:49:46;;;;;;;5.07;1.90;;;13.50;99.90;;;;;;5114965;28;20207;-74
2022/09/20 10:52:33;;;;;;;5.50;1.80;;;13.80;99.90;;;;;;5114580;28;20196;-75
2022/09/20 10:55:24;;;;;;;6.73;1.83;;;14.00;99.90;;;;;;5114910;28;20250;-75
2022/09/20 10:58:05;;;;;;;5.20;2.00;;;13.80;99.90;;;;;;5114918;28;20278;-75
2022/09/20 11:00:43;;;;;;;7.43;2.37;;;13.80;99.90;;;;;;5114222;28;20200;-74
2022/09/20 11:03:25;;;;;;;7.87;2.50;;;13.70;99.90;;;;;;5114742;28;20192;-75
2022/09/20 11:06:05;;;;;;;3.90;2.00;;;13.60;99.90;;;;;;5114416;28;20253;-75
2022/09/20 11:08:35;;;;;;;5.70;2.10;;;13.60;99.90;;;;;;5114449;28;20202;-75
2022/09/20 11:11:08;;;;;;;5.27;2.00;;;13.50;99.90;;;;;;5114242;28;20200;-75
2022/09/20 11:13:42;;;;;;;4.17;2.00;;;14.00;99.90;;;;;;5114509;28;20192;-75
2022/09/20 11:16:14;;;;;;;5.77;2.30;;;13.90;99.90;;;;;;5115043;28;20376;-74
2022/09/20 11:18:45;;;;;;;4.93;2.20;;;13.40;99.90;;;;;;5114240;28;20614;-73
2022/09/20 11:21:19;;;;;;;4.73;2.10;;;12.90;99.90;;;;;;5115806;28;20265;-72
2022/09/20 11:23:52;;;;;;;5.03;1.80;;;12.90;99.90;;;;;;5114222;28;20248;-74
2022/09/20 11:26:27;;;;;;;3.67;1.70;;;13.00;99.90;;;;;;5110891;28;20196;-73
2022/09/20 11:28:57;;;;;;;8.80;2.13;;;13.20;99.90;;;;;;5113958;28;20607;-73
2022/09/20 11:31:26;;;;;;;5.67;1.93;;;13.50;99.90;;;;;;5113524;28;20203;-73
2022/09/20 11:33:57;;;;;;;3.80;1.90;;;14.00;99.90;;;;;;5113873;28;20241;-73
2022/09/20 11:36:29;;;;;;;3.67;1.77;;;14.10;99.90;;;;;;5114103;28;20200;-74
2022/09/20 11:39:02;;;;;;;4.73;1.90;;;16.10;99.90;;;;;;5113923;28;20199;-75
2022/09/20 11:41:31;;;;;;;2.33;1.80;;;16.80;99.90;;;;;;5113281;28;20195;-76
2022/09/20 11:44:02;;;;;;;4.30;1.90;;;16.80;99.90;;;;;;5113767;28;20203;-77
2022/09/20 11:46:35;;;;;;;4.93;2.25;;;15.80;99.90;;;;;;5113855;28;20207;-76
2022/09/20 11:49:07;;;;;;;2.97;1.70;;;15.40;99.90;;;;;;5113666;28;20707;-77
2022/09/20 11:52:16;;;;;;;4.80;1.77;;;17.40;99.90;;;;;;5114044;28;20231;-76
2022/09/20 11:55:05;;;;;;;5.85;2.00;;;18.90;99.90;;;;;;5113693;28;20268;-78
2022/09/20 11:57:34;;;;;;;4.90;1.95;;;19.80;99.90;;;;;;5114116;28;20257;-77
2022/09/20 12:00:03;;;;;;;3.38;1.80;;;20.70;99.90;;;;;;5113701;28;20217;-76
2022/09/20 12:02:35;;;;;;;3.80;1.90;;;18.10;99.90;;;;;;5113799;28;20204;-77
2022/09/20 12:05:05;;;;;;;4.38;1.90;;;16.50;99.90;;;;;;5113729;28;20195;-76
2022/09/20 12:07:35;;;;;;;5.75;2.22;;;15.00;99.90;;;;;;5113625;28;20732;-77
2022/09/20 12:10:06;;;;;;;5.65;2.25;;;17.30;99.90;;;;;;5113475;28;20191;-76
2022/09/20 12:12:38;;;;;;;3.30;1.75;;;18.70;99.90;;;;;;5113579;28;20219;-76
2022/09/20 12:15:08;;;;;;;5.45;1.75;;;19.40;99.90;;;;;;5113308;28;20604;-76
2022/09/20 12:18:14;;;;;;;2.60;1.40;;;20.10;99.90;;;;;;5113296;28;20715;-77
2022/09/20 12:21:17;;;;;;;2.17;1.58;;;21.20;99.90;;;;;;5113133;28;20196;-76
2022/09/20 12:24:10;;;;;;;3.58;1.40;;;19.50;99.90;;;;;;5113194;28;20601;-76
2022/09/20 12:26:42;;;;;;;1.90;1.30;;;19.20;99.90;;;;;;5102941;28;20199;-76
2022/09/20 12:29:54;;;;;;;1.33;0.95;;;19.40;99.90;;;;;;5113234;28;20203;-76
2022/09/20 12:32:34;;;;;;;2.67;0.98;;;19.40;99.90;;;;;;5113526;28;20334;-76
2022/09/20 12:35:00;;;;;;;2.03;1.10;;;20.90;98.80;;;;;;5113278;28;20218;-76
2022/09/20 12:37:29;;;;;;;1.73;1.10;;;21.80;98.60;;;;;;5113081;28;20195;-76
2022/09/20 12:39:56;;;;;;;1.48;0.98;;;22.60;97.70;;;;;;5113128;28;20195;-76
2022/09/20 12:42:30;;;;;;;1.40;0.90;;;21.40;94.40;;;;;;5113117;28;20195;-76
2022/09/20 12:45:00;;;;;;;1.52;1.00;;;22.00;92.80;;;;;;5113018;28;20199;-76
2022/09/20 12:47:29;;;;;;;4.15;1.00;;;22.80;92.40;;;;;;5113226;28;20298;-77
2022/09/20 12:52:55;;;;;;;2.83;1.25;;;21.90;90.00;;;;;;5113060;28;20563;-77
2022/09/20 12:55:51;;;;;;;1.88;1.20;;;23.30;90.90;;;;;;5113041;28;20270;-77
2022/09/20 12:58:25;;;;;;;3.15;1.27;;;23.80;88.70;;;;;;5113041;28;20199;-76
2022/09/20 13:01:42;;;;;;;2.22;1.10;;;23.50;87.30;;;;;;5112937;28;20677;-77
2022/09/20 13:04:52;;;;;;;1.63;1.23;;;21.70;84.90;;;;;;5030159;28;20245;-78
2022/09/20 13:07:46;;;;;;;2.75;1.60;;;19.90;83.50;;;;;;5113295;28;20195;-75
2022/09/20 13:10:26;;;;;;;2.05;1.23;;;17.60;90.70;;;;;;5114471;28;20370;-75
2022/09/20 13:12:58;;;;;;;2.47;1.33;;;15.90;94.80;;;;;;5112964;28;20228;-76
2022/09/20 13:15:26;;;;;;;4.82;1.42;;;14.80;99.80;;;;;;5112881;28;20262;-76
2022/09/20 13:17:54;;;;;;;2.20;1.53;;;13.80;99.90;;;;;;5112812;28;20244;-76
2022/09/20 13:20:26;;;;;;;2.83;1.50;;;13.40;99.90;;;;;;5112847;28;20248;-76
2022/09/20 13:22:53;;;;;;;1.50;1.27;;;13.10;99.90;;;;;;5112641;28;20223;-76
2022/09/20 13:25:22;;;;;;;2.43;1.30;;;12.90;99.90;;;;;;5112768;28;20200;-76
2022/09/20 13:27:55;;;;;;;1.67;1.33;;;12.90;99.90;;;;;;5112805;28;20192;-76
2022/09/20 13:30:24;;;;;;;2.43;1.60;;;13.20;99.90;;;;;;5112673;28;20257;-76
2022/09/20 13:32:51;;;;;;;2.20;1.30;;;13.70;99.90;;;;;;5112706;28;20196;-76
2022/09/20 13:35:20;;;;;;;2.30;1.43;;;14.30;99.90;;;;;;5112593;28;20629;-76
2022/09/20 13:37:53;;;;;;;1.80;1.00;;;16.40;99.90;;;;;;5112635;28;20192;-76
2022/09/20 13:40:21;;;;;;;2.92;1.20;;;18.40;99.90;;;;;;5112591;28;20211;-76
2022/09/20 13:42:49;;;;;;;2.97;1.20;;;20.50;99.90;;;;;;5114688;28;20203;-76
2022/09/20 13:45:17;;;;;;;3.58;1.60;;;21.30;97.80;;;;;;5116632;28;20196;-76
2022/09/20 13:47:48;;;;;;;3.50;1.42;;;22.40;95.80;;;;;;5116494;28;20191;-76